Terminal Aerodrome Forecast
Issued by NWS Blacksburg, VA

Current Version | Previous Version | Text Only | Print | Product List | Glossary Off
Versions: 1 2 3 4 5 6 7 8 9 10 11 12 13 14 15 16 17 18 19 20 21 22 23 24 25 26 27 28 29 30 31 32 33 34 35 36 37 38 39 40 41

000
FTUS41 KRNK 200931 AAA
TAFBLF
TAF AMD
KBLF 200931Z 2010/2106 12003KT P6SM BKN035 OVC050
     FM201500 15007KT P6SM SCT015 OVC035
     FM201800 14007KT P6SM VCSH SCT025 BKN050
     FM210000 15005KT P6SM OVC100
     FM210300 16005KT 6SM BR OVC050=

USA.gov is the U.S. government's official web portal to all federal, state and local government web resources and services.